Neptune Avra — 9HKH6 — position and weather

sailwx.info

Track history (hours):
 
Tides and Currents Weather Stations Pressure Air Temp Water Temp Dewpoint Dewpoint Depression Visibility Wind Speed Wind Dir Waves Ship Positions

Neptune Avra

Last reported at 2017-Jan-23 05:32 UTC. Time now 2017-Jan-23 06:23 UTC.
Position N 41°14' E 002°19'.

Length 155 m; draft 5.9 m.

Type: Cargo ship. MMSI: 248598000.

Date/timePositionNaut miles runAvg speedWind from/ knotsBaromVisibWave heightAir tempDewpointWater temp
2017-Jan-23 05:32N 41°14' E 002°19'7 2.8
2017-Jan-23 03:07N 41°11' E 002°10'17 8.4
2017-Jan-23 01:08N 41°17' E 002°31'2 3.2
2017-Jan-23 00:32N 41°19' E 002°30'5 3.9
2017-Jan-22 23:19N 41°16' E 002°24'4 5.1
2017-Jan-22 22:28N 41°14' E 002°19'5 4.6
2017-Jan-22 21:23N 41°12' E 002°13'5 4.6
2017-Jan-22 20:13N 41°11' E 002°06'3 4.6
2017-Jan-22 19:32N 41°10' E 002°02'6 4.6
2017-Jan-22 18:08N 41°09' E 001°54'9 5.0
2017-Jan-22 16:21N 41°06' E 001°43'15 1.9
2017-Jan-22 08:10N 41°09' E 002°02'2 3.1
2017-Jan-22 07:33N 41°09' E 001°60'4 3.6
2017-Jan-22 06:33N 41°07' E 001°56'4 3.9
2017-Jan-22 05:33N 41°06' E 001°51'4 4.2
2017-Jan-22 04:33N 41°05' E 001°46'4 4.1
2017-Jan-22 03:33N 41°04' E 001°40'17 2.9
2017-Jan-21 21:33N 41°04' E 002°03'3 2.6
2017-Jan-21 20:33N 41°02' E 002°06'4 4.1
2017-Jan-21 19:33N 41°04' E 002°10'9 8.7
2017-Jan-21 18:33N 41°10' E 002°19'10 8.7
2017-Jan-21 17:25N 41°16' E 002°30'0 0.1
2017-Jan-21 14:23N 41°16' E 002°29'3 4.0
2017-Jan-21 13:32N 41°13' E 002°26'2 1.9
2017-Jan-21 12:21N 41°12' E 002°24'0 0.4
2017-Jan-21 11:30N 41°12' E 002°24'8 8.3
2017-Jan-21 10:33N 41°06' E 002°16'8 7.8
2017-Jan-21 09:33N 41°02' E 002°08'5 4.6
2017-Jan-21 08:33N 41°00' E 002°02'3 3.3
2017-Jan-21 07:33N 41°01' E 002°06'3 3.2
2017-Jan-21 06:33N 41°02' E 002°10'3 3.0
2017-Jan-21 05:33N 41°03' E 002°14'3 2.7
2017-Jan-21 04:33N 41°05' E 002°17'7 6.6
2017-Jan-21 03:33N 41°07' E 002°09'2 1.5
2017-Jan-21 02:33N 41°07' E 002°11'2 1.7
2017-Jan-21 01:33N 41°07' E 002°13'8 8.3
2017-Jan-21 00:33N 40°59' E 002°13'1010.0
2017-Jan-20 23:33N 40°49' E 002°13'1211.6
2017-Jan-20 22:33N 40°38' E 002°13'1212.1
2017-Jan-20 21:33N 40°25' E 002°14'1212.4
2017-Jan-20 20:33N 40°13' E 002°13'1212.3
2017-Jan-20 19:33N 40°01' E 002°12'1313.1
2017-Jan-20 18:33N 39°48' E 002°12'1313.5
2017-Jan-20 17:33N 39°34' E 002°12'1313.3
2017-Jan-20 16:33N 39°23' E 002°21'1313.2
2017-Jan-20 15:33N 39°13' E 002°32'4 3.6
2017-Jan-20 14:33N 39°10' E 002°35'2 2.0
2017-Jan-20 13:33N 39°12' E 002°36'9 9.1
2017-Jan-20 12:33N 39°10' E 002°25'2 1.8
2017-Jan-20 11:33N 39°09' E 002°23'1 1.1
2017-Jan-20 10:33N 39°10' E 002°24'1 1.4
2017-Jan-20 09:33N 39°10' E 002°26'2 1.5
2017-Jan-20 08:33N 39°11' E 002°27'1 1.4
2017-Jan-20 07:33N 39°12' E 002°29'1 1.4
2017-Jan-20 06:33N 39°13' E 002°30'1 1.5
2017-Jan-20 05:33N 39°13' E 002°32'1 1.1
2017-Jan-20 04:33N 39°13' E 002°33'1 1.2
2017-Jan-20 03:33N 39°12' E 002°34'1 1.2
2017-Jan-20 02:33N 39°11' E 002°35'1 1.2
2017-Jan-20 01:33N 39°11' E 002°34'8 7.7
2017-Jan-20 00:33N 39°13' E 002°24'1 1.4
2017-Jan-19 23:33N 39°13' E 002°26'2 1.6
2017-Jan-19 22:33N 39°12' E 002°28'2 1.8
2017-Jan-19 21:33N 39°12' E 002°30'2 1.9
2017-Jan-19 20:33N 39°11' E 002°32'2 1.9
2017-Jan-19 19:33N 39°10' E 002°35'2 1.8
2017-Jan-19 18:33N 39°10' E 002°37'8 7.9
2017-Jan-19 17:33N 39°16' E 002°30'2 1.7
2017-Jan-19 16:33N 39°15' E 002°32'2 1.9
2017-Jan-19 15:33N 39°14' E 002°34'2 1.7
2017-Jan-19 14:33N 39°13' E 002°36'2 1.9
2017-Jan-19 13:33N 39°12' E 002°38'2 2.1
2017-Jan-19 12:33N 39°10' E 002°36'1010.0
2017-Jan-19 11:33N 39°08' E 002°23'2 2.2
2017-Jan-19 10:33N 39°07' E 002°26'2 2.0
2017-Jan-19 09:33N 39°06' E 002°28'4 1.8
2017-Jan-19 07:33N 39°07' E 002°33'  
2017-Jan-17 03:04N 40°18' E 002°25'714.1
2017-Jan-17 02:33N 40°25' E 002°29'1414.3
2017-Jan-17 01:33N 40°38' E 002°36'1414.1
2017-Jan-17 00:33N 40°51' E 002°44'1414.6
2017-Jan-16 23:33N 41°04' E 002°51'14511.0
2017-Jan-16 10:25N 43°24' E 003°43'0 0.0
2017-Jan-16 08:28N 43°24' E 003°43'0 0.0
2017-Jan-16 06:31N 43°24' E 003°43'2 1.3
2017-Jan-16 05:03N 43°24' E 003°45'3 6.9
2017-Jan-16 04:33N 43°21' E 003°48'155 5.2
2017-Jan-14 22:33N 41°04' E 002°11'1413.7
2017-Jan-14 21:33N 40°56' E 001°56'1413.6
2017-Jan-14 20:33N 40°46' E 001°44'1413.6
2017-Jan-14 19:33N 40°37' E 001°31'1414.4
2017-Jan-14 18:33N 40°28' E 001°15'1514.9
2017-Jan-14 17:33N 40°19' E 000°60'68 5.5
2017-Jan-14 05:11N 39°35' W 000°07'62 9.3
2017-Jan-13 22:33N 39°18' E 001°10'1111.4
2017-Jan-13 21:33N 39°14' E 001°24'1111.4
2017-Jan-13 20:33N 39°10' E 001°37'1111.1
2017-Jan-13 19:33N 39°07' E 001°51'1110.9
2017-Jan-13 18:33N 39°04' E 002°05'1110.8
2017-Jan-13 17:33N 39°00' E 002°17'1 1.4
2017-Jan-13 16:33N 39°01' E 002°17'2 2.0
2017-Jan-13 15:33N 39°03' E 002°15'2 1.9
2017-Jan-13 14:33N 39°05' E 002°14'2 1.8
2017-Jan-13 13:33N 39°06' E 002°13'2 1.9
2017-Jan-13 12:33N 39°08' E 002°12'2 1.9
2017-Jan-13 11:33N 39°10' E 002°11'2 2.0
2017-Jan-13 10:33N 39°12' E 002°10'2 2.0
2017-Jan-13 09:33N 39°13' E 002°09'2 1.8
2017-Jan-13 08:33N 39°14' E 002°07'2 1.6
2017-Jan-13 07:33N 39°15' E 002°05'2 2.1
2017-Jan-13 06:33N 39°14' E 002°03'2 2.3
2017-Jan-13 05:33N 39°13' E 002°00'  
Track history (hours):
 
Tides and Currents Weather Stations Pressure Air Temp Water Temp Dewpoint Dewpoint Depression Visibility Wind Speed Wind Dir Waves Ship Positions

Neptune Avra

Last reported at 2017-Jan-23 05:32 UTC. Time now 2017-Jan-23 06:23 UTC.
Position N 41°14' E 002°19'.

Length 155 m; draft 5.9 m.

Type: Cargo ship. MMSI: 248598000.

Date/timePositionNaut miles runAvg speedWind from/ knotsBaromVisibWave heightAir tempDewpointWater temp
2017-Jan-23 05:32N 41°14' E 002°19'7 2.8
2017-Jan-23 03:07N 41°11' E 002°10'17 8.4
2017-Jan-23 01:08N 41°17' E 002°31'2 3.2
2017-Jan-23 00:32N 41°19' E 002°30'5 3.9
2017-Jan-22 23:19N 41°16' E 002°24'4 5.1
2017-Jan-22 22:28N 41°14' E 002°19'5 4.6
2017-Jan-22 21:23N 41°12' E 002°13'5 4.6
2017-Jan-22 20:13N 41°11' E 002°06'3 4.6
2017-Jan-22 19:32N 41°10' E 002°02'6 4.6
2017-Jan-22 18:08N 41°09' E 001°54'9 5.0
2017-Jan-22 16:21N 41°06' E 001°43'15 1.9
2017-Jan-22 08:10N 41°09' E 002°02'2 3.1
2017-Jan-22 07:33N 41°09' E 001°60'4 3.6
2017-Jan-22 06:33N 41°07' E 001°56'4 3.9
2017-Jan-22 05:33N 41°06' E 001°51'4 4.2
2017-Jan-22 04:33N 41°05' E 001°46'4 4.1
2017-Jan-22 03:33N 41°04' E 001°40'17 2.9
2017-Jan-21 21:33N 41°04' E 002°03'3 2.6
2017-Jan-21 20:33N 41°02' E 002°06'4 4.1
2017-Jan-21 19:33N 41°04' E 002°10'9 8.7
2017-Jan-21 18:33N 41°10' E 002°19'10 8.7
2017-Jan-21 17:25N 41°16' E 002°30'0 0.1
2017-Jan-21 14:23N 41°16' E 002°29'3 4.0
2017-Jan-21 13:32N 41°13' E 002°26'2 1.9
2017-Jan-21 12:21N 41°12' E 002°24'0 0.4
2017-Jan-21 11:30N 41°12' E 002°24'8 8.3
2017-Jan-21 10:33N 41°06' E 002°16'8 7.8
2017-Jan-21 09:33N 41°02' E 002°08'5 4.6
2017-Jan-21 08:33N 41°00' E 002°02'3 3.3
2017-Jan-21 07:33N 41°01' E 002°06'3 3.2
2017-Jan-21 06:33N 41°02' E 002°10'3 3.0
2017-Jan-21 05:33N 41°03' E 002°14'3 2.7
2017-Jan-21 04:33N 41°05' E 002°17'7 6.6
2017-Jan-21 03:33N 41°07' E 002°09'2 1.5
2017-Jan-21 02:33N 41°07' E 002°11'2 1.7
2017-Jan-21 01:33N 41°07' E 002°13'8 8.3
2017-Jan-21 00:33N 40°59' E 002°13'1010.0
2017-Jan-20 23:33N 40°49' E 002°13'1211.6
2017-Jan-20 22:33N 40°38' E 002°13'1212.1
2017-Jan-20 21:33N 40°25' E 002°14'1212.4
2017-Jan-20 20:33N 40°13' E 002°13'1212.3
2017-Jan-20 19:33N 40°01' E 002°12'1313.1
2017-Jan-20 18:33N 39°48' E 002°12'1313.5
2017-Jan-20 17:33N 39°34' E 002°12'1313.3
2017-Jan-20 16:33N 39°23' E 002°21'1313.2
2017-Jan-20 15:33N 39°13' E 002°32'4 3.6
2017-Jan-20 14:33N 39°10' E 002°35'2 2.0
2017-Jan-20 13:33N 39°12' E 002°36'9 9.1
2017-Jan-20 12:33N 39°10' E 002°25'2 1.8
2017-Jan-20 11:33N 39°09' E 002°23'1 1.1
2017-Jan-20 10:33N 39°10' E 002°24'1 1.4
2017-Jan-20 09:33N 39°10' E 002°26'2 1.5
2017-Jan-20 08:33N 39°11' E 002°27'1 1.4
2017-Jan-20 07:33N 39°12' E 002°29'1 1.4
2017-Jan-20 06:33N 39°13' E 002°30'1 1.5
2017-Jan-20 05:33N 39°13' E 002°32'1 1.1
2017-Jan-20 04:33N 39°13' E 002°33'1 1.2
2017-Jan-20 03:33N 39°12' E 002°34'1 1.2
2017-Jan-20 02:33N 39°11' E 002°35'1 1.2
2017-Jan-20 01:33N 39°11' E 002°34'8 7.7
2017-Jan-20 00:33N 39°13' E 002°24'1 1.4
2017-Jan-19 23:33N 39°13' E 002°26'2 1.6
2017-Jan-19 22:33N 39°12' E 002°28'2 1.8
2017-Jan-19 21:33N 39°12' E 002°30'2 1.9
2017-Jan-19 20:33N 39°11' E 002°32'2 1.9
2017-Jan-19 19:33N 39°10' E 002°35'2 1.8
2017-Jan-19 18:33N 39°10' E 002°37'8 7.9
2017-Jan-19 17:33N 39°16' E 002°30'2 1.7
2017-Jan-19 16:33N 39°15' E 002°32'2 1.9
2017-Jan-19 15:33N 39°14' E 002°34'2 1.7
2017-Jan-19 14:33N 39°13' E 002°36'2 1.9
2017-Jan-19 13:33N 39°12' E 002°38'2 2.1
2017-Jan-19 12:33N 39°10' E 002°36'1010.0
2017-Jan-19 11:33N 39°08' E 002°23'2 2.2
2017-Jan-19 10:33N 39°07' E 002°26'2 2.0
2017-Jan-19 09:33N 39°06' E 002°28'4 1.8
2017-Jan-19 07:33N 39°07' E 002°33'  
2017-Jan-17 03:04N 40°18' E 002°25'714.1
2017-Jan-17 02:33N 40°25' E 002°29'1414.3
2017-Jan-17 01:33N 40°38' E 002°36'1414.1
2017-Jan-17 00:33N 40°51' E 002°44'1414.6
2017-Jan-16 23:33N 41°04' E 002°51'14511.0
2017-Jan-16 10:25N 43°24' E 003°43'0 0.0
2017-Jan-16 08:28N 43°24' E 003°43'0 0.0
2017-Jan-16 06:31N 43°24' E 003°43'2 1.3
2017-Jan-16 05:03N 43°24' E 003°45'3 6.9
2017-Jan-16 04:33N 43°21' E 003°48'155 5.2
2017-Jan-14 22:33N 41°04' E 002°11'1413.7
2017-Jan-14 21:33N 40°56' E 001°56'1413.6
2017-Jan-14 20:33N 40°46' E 001°44'1413.6
2017-Jan-14 19:33N 40°37' E 001°31'1414.4
2017-Jan-14 18:33N 40°28' E 001°15'1514.9
2017-Jan-14 17:33N 40°19' E 000°60'68 5.5
2017-Jan-14 05:11N 39°35' W 000°07'62 9.3
2017-Jan-13 22:33N 39°18' E 001°10'1111.4
2017-Jan-13 21:33N 39°14' E 001°24'1111.4
2017-Jan-13 20:33N 39°10' E 001°37'1111.1
2017-Jan-13 19:33N 39°07' E 001°51'1110.9
2017-Jan-13 18:33N 39°04' E 002°05'1110.8
2017-Jan-13 17:33N 39°00' E 002°17'1 1.4
2017-Jan-13 16:33N 39°01' E 002°17'2 2.0
2017-Jan-13 15:33N 39°03' E 002°15'2 1.9
2017-Jan-13 14:33N 39°05' E 002°14'2 1.8
2017-Jan-13 13:33N 39°06' E 002°13'2 1.9
2017-Jan-13 12:33N 39°08' E 002°12'2 1.9
2017-Jan-13 11:33N 39°10' E 002°11'2 2.0
2017-Jan-13 10:33N 39°12' E 002°10'2 2.0
2017-Jan-13 09:33N 39°13' E 002°09'2 1.8
2017-Jan-13 08:33N 39°14' E 002°07'2 1.6
2017-Jan-13 07:33N 39°15' E 002°05'2 2.1
2017-Jan-13 06:33N 39°14' E 002°03'2 2.3
2017-Jan-13 05:33N 39°13' E 002°00'  

Dump ship's entire track history